KMHL/MHL METAR and TAF weather

Enter ICAO airport designator
Station Type Date Time Source
KMHL METAR 2019/04/23 00:15 UTC NOAA

KMHL 230015Z AUTO 21011G14KT 10SM CLR 22/16 A2996 RMK AO2


Station Type Date Time Source
KMHL Decoded METAR 2019/04/23 00:15 UTC NOAA

Station name not available
Apr 22, 2019 - 08:15 PM EDT / 2019.04.23 0015 UTC
Wind: from the SSW (210 degrees) at 13 MPH (11 KT) gusting to 16 MPH (14 KT):0
Visibility: 10 mile(s):0
Sky conditions: clear
Temperature: 71 F (22 C)
Dew Point: 60 F (16 C)
Relative Humidity: 68%
Pressure (altimeter): 29.96 in. Hg (1014 hPa)
ob: KMHL 230015Z AUTO 21011G14KT 10SM CLR 22/16 A2996 RMK AO2
cycle: 0

Station Type Date Time Source
KMHL TAF UTC NOAA

Error!

Example: see airport list